Haverhill, Florida
Current Conditions -  °F | °C
As of 7:53 PM on Wednesday 17 Dec 2014 (Local Time) from KPBI Reporting Station
Scattered Clouds Scattered Clouds  
Wind Chill: 70°   Ceiling: Unl
Heat Index: 70°   Visibility: 10mi
Dew Point: 59°   Wind: 5mph
Humidity: 68%   Direction: 150°SSE
Pressure: 30.11"   Gusts: NA
Location:  26.6599°N, 80.1276°W
Report Text: KPBI 180053Z 15004KT 10SM FEW100 SCT250 21/15 A3011 RMK AO2 SLP196 T02110150
Loading
Personal Weather Stations






























Interactive Weather Map New forecast layout! Learn more

10-Day Weather Forecast

Advertisements
Track Severe Weather on mobile